sensor_id;sensor_type;location;lat;lon;timestamp;temperature;humidity
55173;DHT22;41061;52.822;6.860;2022-09-09T00:26:59;14.90;99.90
55173;DHT22;41061;52.822;6.860;2022-09-09T01:01:07;14.30;99.90
55173;DHT22;41061;52.822;6.860;2022-09-09T01:03:59;14.30;99.90
55173;DHT22;41061;52.822;6.860;2022-09-09T01:06:38;14.40;99.90
55173;DHT22;41061;52.822;6.860;2022-09-09T01:09:24;14.40;99.90
55173;DHT22;41061;52.822;6.860;2022-09-09T01:14:56;14.40;99.90
55173;DHT22;41061;52.822;6.860;2022-09-09T01:27:15;14.50;99.90
55173;DHT22;41061;52.822;6.860;2022-09-09T01:29:44;14.50;99.90
55173;DHT22;41061;52.822;6.860;2022-09-09T01:32:39;14.60;99.90
55173;DHT22;41061;52.822;6.860;2022-09-09T01:35:09;14.60;99.90
55173;DHT22;41061;52.822;6.860;2022-09-09T01:37:36;14.60;99.90
55173;DHT22;41061;52.822;6.860;2022-09-09T01:40:02;14.60;99.90
55173;DHT22;41061;52.822;6.860;2022-09-09T01:42:28;14.70;99.90
55173;DHT22;41061;52.822;6.860;2022-09-09T01:44:54;14.70;99.90
55173;DHT22;41061;52.822;6.860;2022-09-09T01:47:21;14.70;99.90
55173;DHT22;41061;52.822;6.860;2022-09-09T01:49:46;14.70;99.90
55173;DHT22;41061;52.822;6.860;2022-09-09T01:52:12;14.70;99.90
55173;DHT22;41061;52.822;6.860;2022-09-09T01:54:38;14.80;99.90
55173;DHT22;41061;52.822;6.860;2022-09-09T01:57:31;14.80;99.90
55173;DHT22;41061;52.822;6.860;2022-09-09T02:00:12;14.80;99.90
55173;DHT22;41061;52.822;6.860;2022-09-09T02:08:21;14.80;99.90
55173;DHT22;41061;52.822;6.860;2022-09-09T02:11:10;14.90;99.90
55173;DHT22;41061;52.822;6.860;2022-09-09T02:13:38;14.90;99.90
55173;DHT22;41061;52.822;6.860;2022-09-09T02:16:31;14.80;99.90
55173;DHT22;41061;52.822;6.860;2022-09-09T02:19:41;14.90;99.90
55173;DHT22;41061;52.822;6.860;2022-09-09T02:22:26;14.90;99.90
55173;DHT22;41061;52.822;6.860;2022-09-09T02:31:13;14.90;99.90
55173;DHT22;41061;52.822;6.860;2022-09-09T02:33:44;14.80;99.90
55173;DHT22;41061;52.822;6.860;2022-09-09T02:36:12;14.80;99.90
55173;DHT22;41061;52.822;6.860;2022-09-09T02:39:19;14.80;99.90
55173;DHT22;41061;52.822;6.860;2022-09-09T02:41:50;14.90;99.90
55173;DHT22;41061;52.822;6.860;2022-09-09T02:44:19;14.90;99.90
55173;DHT22;41061;52.822;6.860;2022-09-09T02:50:15;14.90;99.90
55173;DHT22;41061;52.822;6.860;2022-09-09T02:56:32;14.90;99.90
55173;DHT22;41061;52.822;6.860;2022-09-09T03:03:01;14.90;99.90
55173;DHT22;41061;52.822;6.860;2022-09-09T03:06:00;15.00;99.90
55173;DHT22;41061;52.822;6.860;2022-09-09T03:08:58;14.90;99.90
55173;DHT22;41061;52.822;6.860;2022-09-09T03:11:28;15.00;99.90
55173;DHT22;41061;52.822;6.860;2022-09-09T03:13:54;15.00;99.90
55173;DHT22;41061;52.822;6.860;2022-09-09T03:16:24;14.90;99.90
55173;DHT22;41061;52.822;6.860;2022-09-09T03:18:50;14.90;99.90
55173;DHT22;41061;52.822;6.860;2022-09-09T03:21:16;15.00;99.90
55173;DHT22;41061;52.822;6.860;2022-09-09T03:23:41;15.00;99.90
55173;DHT22;41061;52.822;6.860;2022-09-09T03:26:07;14.90;99.90
55173;DHT22;41061;52.822;6.860;2022-09-09T03:28:33;14.90;99.90
55173;DHT22;41061;52.822;6.860;2022-09-09T03:31:04;14.90;99.90
55173;DHT22;41061;52.822;6.860;2022-09-09T03:33:30;14.90;99.90
55173;DHT22;41061;52.822;6.860;2022-09-09T03:35:57;15.00;99.90
55173;DHT22;41061;52.822;6.860;2022-09-09T03:38:24;14.90;99.90
55173;DHT22;41061;52.822;6.860;2022-09-09T03:40:55;14.80;99.90
55173;DHT22;41061;52.822;6.860;2022-09-09T03:43:23;14.80;99.90
55173;DHT22;41061;52.822;6.860;2022-09-09T03:45:49;14.70;99.90
55173;DHT22;41061;52.822;6.860;2022-09-09T03:48:15;14.80;99.90
55173;DHT22;41061;52.822;6.860;2022-09-09T03:50:52;14.70;99.90
55173;DHT22;41061;52.822;6.860;2022-09-09T03:53:20;14.60;99.90
55173;DHT22;41061;52.822;6.860;2022-09-09T03:55:51;14.70;99.90
55173;DHT22;41061;52.822;6.860;2022-09-09T03:58:23;14.70;99.90
55173;DHT22;41061;52.822;6.860;2022-09-09T04:01:05;14.70;99.90
55173;DHT22;41061;52.822;6.860;2022-09-09T04:03:31;14.70;99.90
55173;DHT22;41061;52.822;6.860;2022-09-09T04:05:59;14.60;99.90
55173;DHT22;41061;52.822;6.860;2022-09-09T04:08:29;15.50;99.90
55173;DHT22;41061;52.822;6.860;2022-09-09T04:11:08;14.70;99.90
55173;DHT22;41061;52.822;6.860;2022-09-09T04:13:37;14.60;99.90
55173;DHT22;41061;52.822;6.860;2022-09-09T04:16:18;14.50;99.90
55173;DHT22;41061;52.822;6.860;2022-09-09T04:18:49;14.70;99.90
55173;DHT22;41061;52.822;6.860;2022-09-09T04:21:15;14.60;99.90
55173;DHT22;41061;52.822;6.860;2022-09-09T04:23:41;14.70;99.90
55173;DHT22;41061;52.822;6.860;2022-09-09T04:26:07;14.60;99.90
55173;DHT22;41061;52.822;6.860;2022-09-09T04:28:34;14.60;99.90
55173;DHT22;41061;52.822;6.860;2022-09-09T04:31:08;14.70;99.90
55173;DHT22;41061;52.822;6.860;2022-09-09T04:33:35;15.30;99.90
55173;DHT22;41061;52.822;6.860;2022-09-09T04:36:01;14.50;99.90
55173;DHT22;41061;52.822;6.860;2022-09-09T04:38:27;14.70;99.90
55173;DHT22;41061;52.822;6.860;2022-09-09T04:51:00;14.70;99.90
55173;DHT22;41061;52.822;6.860;2022-09-09T04:53:27;14.70;99.90
55173;DHT22;41061;52.822;6.860;2022-09-09T04:56:01;14.60;99.90
55173;DHT22;41061;52.822;6.860;2022-09-09T04:58:27;14.60;99.90
55173;DHT22;41061;52.822;6.860;2022-09-09T05:00:53;14.60;99.90
55173;DHT22;41061;52.822;6.860;2022-09-09T05:03:19;14.60;99.90
55173;DHT22;41061;52.822;6.860;2022-09-09T05:05:44;14.60;99.90
55173;DHT22;41061;52.822;6.860;2022-09-09T05:08:10;14.60;99.90
55173;DHT22;41061;52.822;6.860;2022-09-09T05:13:03;14.60;99.90
55173;DHT22;41061;52.822;6.860;2022-09-09T05:15:30;14.60;99.90
55173;DHT22;41061;52.822;6.860;2022-09-09T05:18:03;14.60;99.90
55173;DHT22;41061;52.822;6.860;2022-09-09T05:20:38;14.60;99.90
55173;DHT22;41061;52.822;6.860;2022-09-09T05:23:11;14.60;99.90
55173;DHT22;41061;52.822;6.860;2022-09-09T05:25:43;14.50;99.90
55173;DHT22;41061;52.822;6.860;2022-09-09T05:28:33;14.50;99.90
55173;DHT22;41061;52.822;6.860;2022-09-09T05:31:33;14.60;99.90
55173;DHT22;41061;52.822;6.860;2022-09-09T05:34:01;14.60;99.90
55173;DHT22;41061;52.822;6.860;2022-09-09T05:36:30;14.60;99.90
55173;DHT22;41061;52.822;6.860;2022-09-09T05:38:56;14.60;99.90
55173;DHT22;41061;52.822;6.860;2022-09-09T05:41:34;14.60;99.90
55173;DHT22;41061;52.822;6.860;2022-09-09T05:44:01;14.50;99.90
55173;DHT22;41061;52.822;6.860;2022-09-09T05:46:34;14.40;99.90
55173;DHT22;41061;52.822;6.860;2022-09-09T05:49:08;14.50;99.90
55173;DHT22;41061;52.822;6.860;2022-09-09T05:51:41;14.70;99.90
55173;DHT22;41061;52.822;6.860;2022-09-09T05:54:13;14.70;99.90
55173;DHT22;41061;52.822;6.860;2022-09-09T05:56:43;14.60;99.90
55173;DHT22;41061;52.822;6.860;2022-09-09T05:59:09;15.10;99.90
55173;DHT22;41061;52.822;6.860;2022-09-09T06:01:40;15.80;99.90
55173;DHT22;41061;52.822;6.860;2022-09-09T06:04:06;15.10;99.90
55173;DHT22;41061;52.822;6.860;2022-09-09T06:06:36;15.10;99.90
55173;DHT22;41061;52.822;6.860;2022-09-09T06:09:04;15.10;99.90
55173;DHT22;41061;52.822;6.860;2022-09-09T06:11:39;15.50;99.90
55173;DHT22;41061;52.822;6.860;2022-09-09T06:14:05;16.00;99.90
55173;DHT22;41061;52.822;6.860;2022-09-09T06:16:31;15.50;99.90
55173;DHT22;41061;52.822;6.860;2022-09-09T06:18:58;15.00;99.90
55173;DHT22;41061;52.822;6.860;2022-09-09T06:21:26;15.50;99.90
55173;DHT22;41061;52.822;6.860;2022-09-09T06:23:52;15.20;99.90
55173;DHT22;41061;52.822;6.860;2022-09-09T06:26:32;16.10;99.90
55173;DHT22;41061;52.822;6.860;2022-09-09T06:28:59;15.00;99.90
55173;DHT22;41061;52.822;6.860;2022-09-09T06:31:27;15.80;99.90
55173;DHT22;41061;52.822;6.860;2022-09-09T06:33:56;14.90;99.90
55173;DHT22;41061;52.822;6.860;2022-09-09T06:36:28;15.10;99.90
55173;DHT22;41061;52.822;6.860;2022-09-09T06:38:55;14.70;99.90
55173;DHT22;41061;52.822;6.860;2022-09-09T06:41:23;15.10;99.90
55173;DHT22;41061;52.822;6.860;2022-09-09T06:43:49;15.10;99.90
55173;DHT22;41061;52.822;6.860;2022-09-09T06:46:21;15.20;99.90
55173;DHT22;41061;52.822;6.860;2022-09-09T06:48:47;15.20;99.90
55173;DHT22;41061;52.822;6.860;2022-09-09T06:51:14;15.10;99.90
55173;DHT22;41061;52.822;6.860;2022-09-09T06:53:42;15.10;99.90
55173;DHT22;41061;52.822;6.860;2022-09-09T06:58:40;15.10;99.90
55173;DHT22;41061;52.822;6.860;2022-09-09T07:01:13;15.20;99.90
55173;DHT22;41061;52.822;6.860;2022-09-09T07:03:40;15.30;99.90
55173;DHT22;41061;52.822;6.860;2022-09-09T07:06:06;15.20;99.90
55173;DHT22;41061;52.822;6.860;2022-09-09T07:08:33;15.20;99.90
55173;DHT22;41061;52.822;6.860;2022-09-09T07:11:05;15.20;99.90
55173;DHT22;41061;52.822;6.860;2022-09-09T07:13:32;15.30;99.90
55173;DHT22;41061;52.822;6.860;2022-09-09T07:16:05;15.40;99.90
55173;DHT22;41061;52.822;6.860;2022-09-09T07:18:31;15.50;99.90
55173;DHT22;41061;52.822;6.860;2022-09-09T07:20:56;15.60;99.90
55173;DHT22;41061;52.822;6.860;2022-09-09T07:23:23;15.70;99.90
55173;DHT22;41061;52.822;6.860;2022-09-09T07:25:49;15.70;99.90
55173;DHT22;41061;52.822;6.860;2022-09-09T07:28:16;15.70;99.90
55173;DHT22;41061;52.822;6.860;2022-09-09T07:30:42;15.70;99.90
55173;DHT22;41061;52.822;6.860;2022-09-09T07:33:09;15.90;99.90
55173;DHT22;41061;52.822;6.860;2022-09-09T07:35:37;16.00;99.90
55173;DHT22;41061;52.822;6.860;2022-09-09T07:38:03;16.10;99.90
55173;DHT22;41061;52.822;6.860;2022-09-09T07:40:33;16.30;99.90
55173;DHT22;41061;52.822;6.860;2022-09-09T07:42:59;16.50;99.90
55173;DHT22;41061;52.822;6.860;2022-09-09T07:45:25;16.60;99.90
55173;DHT22;41061;52.822;6.860;2022-09-09T07:47:53;16.70;99.90
55173;DHT22;41061;52.822;6.860;2022-09-09T07:50:19;16.80;99.90
55173;DHT22;41061;52.822;6.860;2022-09-09T07:52:44;16.90;99.90
55173;DHT22;41061;52.822;6.860;2022-09-09T07:55:10;17.10;99.90
55173;DHT22;41061;52.822;6.860;2022-09-09T07:57:36;17.20;99.90
55173;DHT22;41061;52.822;6.860;2022-09-09T08:00:03;17.30;99.90
55173;DHT22;41061;52.822;6.860;2022-09-09T08:02:29;17.50;99.90
55173;DHT22;41061;52.822;6.860;2022-09-09T08:04:58;17.60;99.90
55173;DHT22;41061;52.822;6.860;2022-09-09T08:07:24;17.60;99.90
55173;DHT22;41061;52.822;6.860;2022-09-09T08:09:49;17.70;99.90
55173;DHT22;41061;52.822;6.860;2022-09-09T08:12:15;17.80;99.90
55173;DHT22;41061;52.822;6.860;2022-09-09T08:14:41;17.80;99.90
55173;DHT22;41061;52.822;6.860;2022-09-09T08:17:07;17.90;99.90
55173;DHT22;41061;52.822;6.860;2022-09-09T08:19:33;18.00;99.90
55173;DHT22;41061;52.822;6.860;2022-09-09T08:22:01;18.20;99.90
55173;DHT22;41061;52.822;6.860;2022-09-09T08:24:28;18.30;99.90
55173;DHT22;41061;52.822;6.860;2022-09-09T08:26:54;18.40;99.90
55173;DHT22;41061;52.822;6.860;2022-09-09T08:29:20;18.40;99.90
55173;DHT22;41061;52.822;6.860;2022-09-09T08:31:52;18.50;99.90
55173;DHT22;41061;52.822;6.860;2022-09-09T08:34:20;18.50;99.90
55173;DHT22;41061;52.822;6.860;2022-09-09T08:36:47;18.60;99.90
55173;DHT22;41061;52.822;6.860;2022-09-09T08:39:15;18.60;99.90
55173;DHT22;41061;52.822;6.860;2022-09-09T08:53:14;18.70;99.90
55173;DHT22;41061;52.822;6.860;2022-09-09T08:56:02;18.80;99.90
55173;DHT22;41061;52.822;6.860;2022-09-09T08:58:34;18.80;99.90
55173;DHT22;41061;52.822;6.860;2022-09-09T09:03:51;18.90;99.90
55173;DHT22;41061;52.822;6.860;2022-09-09T09:12:00;18.90;99.90
55173;DHT22;41061;52.822;6.860;2022-09-09T09:14:31;19.00;99.90
55173;DHT22;41061;52.822;6.860;2022-09-09T09:17:19;19.00;99.90
55173;DHT22;41061;52.822;6.860;2022-09-09T09:19:46;19.10;99.90
55173;DHT22;41061;52.822;6.860;2022-09-09T09:23:05;19.10;99.90
55173;DHT22;41061;52.822;6.860;2022-09-09T09:25:20;19.10;99.90
55173;DHT22;41061;52.822;6.860;2022-09-09T09:30:26;19.10;99.90
55173;DHT22;41061;52.822;6.860;2022-09-09T09:32:55;19.30;99.90
55173;DHT22;41061;52.822;6.860;2022-09-09T09:35:21;19.50;99.90
55173;DHT22;41061;52.822;6.860;2022-09-09T09:37:47;19.50;99.90
55173;DHT22;41061;52.822;6.860;2022-09-09T09:40:21;19.60;99.90
55173;DHT22;41061;52.822;6.860;2022-09-09T09:42:55;19.80;99.90
55173;DHT22;41061;52.822;6.860;2022-09-09T09:45:34;19.90;99.90
55173;DHT22;41061;52.822;6.860;2022-09-09T09:48:06;19.90;99.90
55173;DHT22;41061;52.822;6.860;2022-09-09T09:50:33;19.80;99.90
55173;DHT22;41061;52.822;6.860;2022-09-09T09:53:03;19.70;99.90
55173;DHT22;41061;52.822;6.860;2022-09-09T09:55:31;19.60;99.90
55173;DHT22;41061;52.822;6.860;2022-09-09T09:58:04;19.70;99.90
55173;DHT22;41061;52.822;6.860;2022-09-09T10:00:30;19.90;99.90
55173;DHT22;41061;52.822;6.860;2022-09-09T10:02:56;20.20;99.90
55173;DHT22;41061;52.822;6.860;2022-09-09T10:05:27;20.30;99.90
55173;DHT22;41061;52.822;6.860;2022-09-09T10:08:13;20.40;99.90
55173;DHT22;41061;52.822;6.860;2022-09-09T10:10:51;20.50;99.90
55173;DHT22;41061;52.822;6.860;2022-09-09T10:13:25;20.60;99.90
55173;DHT22;41061;52.822;6.860;2022-09-09T10:18:39;20.70;99.90
55173;DHT22;41061;52.822;6.860;2022-09-09T10:26:38;20.60;99.90
55173;DHT22;41061;52.822;6.860;2022-09-09T10:59:54;21.10;99.90
55173;DHT22;41061;52.822;6.860;2022-09-09T11:02:30;21.10;99.90
55173;DHT22;41061;52.822;6.860;2022-09-09T11:05:14;21.10;99.90
55173;DHT22;41061;52.822;6.860;2022-09-09T11:07:47;21.30;99.90
55173;DHT22;41061;52.822;6.860;2022-09-09T11:10:21;21.60;99.90
55173;DHT22;41061;52.822;6.860;2022-09-09T11:12:50;21.90;99.90
55173;DHT22;41061;52.822;6.860;2022-09-09T11:15:25;22.00;99.90
55173;DHT22;41061;52.822;6.860;2022-09-09T11:17:56;22.20;99.90
55173;DHT22;41061;52.822;6.860;2022-09-09T11:20:22;22.50;99.90
55173;DHT22;41061;52.822;6.860;2022-09-09T11:23:05;22.50;99.90
55173;DHT22;41061;52.822;6.860;2022-09-09T11:25:40;22.50;99.90
55173;DHT22;41061;52.822;6.860;2022-09-09T11:31:43;22.20;99.90
55173;DHT22;41061;52.822;6.860;2022-09-09T11:37:37;22.10;99.90
55173;DHT22;41061;52.822;6.860;2022-09-09T11:40:26;22.20;99.90
55173;DHT22;41061;52.822;6.860;2022-09-09T11:43:27;22.50;99.90
55173;DHT22;41061;52.822;6.860;2022-09-09T11:45:55;22.80;99.90
55173;DHT22;41061;52.822;6.860;2022-09-09T11:48:39;22.80;99.90
55173;DHT22;41061;52.822;6.860;2022-09-09T11:51:11;22.80;99.90
55173;DHT22;41061;52.822;6.860;2022-09-09T11:53:58;22.80;99.90
55173;DHT22;41061;52.822;6.860;2022-09-09T11:56:32;22.60;99.90
55173;DHT22;41061;52.822;6.860;2022-09-09T11:59:06;22.40;99.90
55173;DHT22;41061;52.822;6.860;2022-09-09T12:01:41;22.40;99.90
55173;DHT22;41061;52.822;6.860;2022-09-09T12:04:12;22.40;99.90
55173;DHT22;41061;52.822;6.860;2022-09-09T12:17:19;22.30;99.90
55173;DHT22;41061;52.822;6.860;2022-09-09T12:19:46;22.50;99.90
55173;DHT22;41061;52.822;6.860;2022-09-09T12:22:30;22.90;99.90
55173;DHT22;41061;52.822;6.860;2022-09-09T12:30:50;23.60;99.90
55173;DHT22;41061;52.822;6.860;2022-09-09T12:33:19;23.50;99.90
55173;DHT22;41061;52.822;6.860;2022-09-09T12:35:51;23.20;99.90
55173;DHT22;41061;52.822;6.860;2022-09-09T12:40:57;22.70;99.90
55173;DHT22;41061;52.822;6.860;2022-09-09T12:43:25;22.60;99.90
55173;DHT22;41061;52.822;6.860;2022-09-09T12:46:20;22.50;99.90
55173;DHT22;41061;52.822;6.860;2022-09-09T12:48:42;22.50;99.90
55173;DHT22;41061;52.822;6.860;2022-09-09T12:51:19;22.60;99.90
55173;DHT22;41061;52.822;6.860;2022-09-09T12:53:46;22.90;99.90
55173;DHT22;41061;52.822;6.860;2022-09-09T12:56:30;23.20;99.90
55173;DHT22;41061;52.822;6.860;2022-09-09T12:58:57;23.30;99.90
55173;DHT22;41061;52.822;6.860;2022-09-09T13:03:52;23.20;99.90
55173;DHT22;41061;52.822;6.860;2022-09-09T13:06:36;22.90;99.90
55173;DHT22;41061;52.822;6.860;2022-09-09T13:09:02;22.60;99.90
55173;DHT22;41061;52.822;6.860;2022-09-09T13:11:35;22.40;99.90
55173;DHT22;41061;52.822;6.860;2022-09-09T13:14:02;22.00;99.90
55173;DHT22;41061;52.822;6.860;2022-09-09T13:16:33;21.80;99.90
55173;DHT22;41061;52.822;6.860;2022-09-09T13:19:21;21.60;99.90
55173;DHT22;41061;52.822;6.860;2022-09-09T13:21:46;21.40;99.90
55173;DHT22;41061;52.822;6.860;2022-09-09T13:24:29;21.20;99.90
55173;DHT22;41061;52.822;6.860;2022-09-09T13:27:00;21.20;99.90
55173;DHT22;41061;52.822;6.860;2022-09-09T13:29:35;21.10;99.90
55173;DHT22;41061;52.822;6.860;2022-09-09T13:32:06;20.90;99.90
55173;DHT22;41061;52.822;6.860;2022-09-09T13:34:49;20.90;99.90
55173;DHT22;41061;52.822;6.860;2022-09-09T13:37:35;22.70;99.90
55173;DHT22;41061;52.822;6.860;2022-09-09T13:40:03;21.40;99.90
55173;DHT22;41061;52.822;6.860;2022-09-09T13:42:32;21.50;99.90
55173;DHT22;41061;52.822;6.860;2022-09-09T13:45:00;21.50;99.90
55173;DHT22;41061;52.822;6.860;2022-09-09T13:47:36;21.50;99.90
55173;DHT22;41061;52.822;6.860;2022-09-09T13:52:54;21.50;99.90
55173;DHT22;41061;52.822;6.860;2022-09-09T13:55:22;21.20;99.90
55173;DHT22;41061;52.822;6.860;2022-09-09T13:58:02;21.00;99.90
55173;DHT22;41061;52.822;6.860;2022-09-09T14:00:36;20.90;99.90
55173;DHT22;41061;52.822;6.860;2022-09-09T14:03:24;20.70;99.90
55173;DHT22;41061;52.822;6.860;2022-09-09T14:06:10;20.70;99.90
55173;DHT22;41061;52.822;6.860;2022-09-09T14:11:30;20.80;99.90
55173;DHT22;41061;52.822;6.860;2022-09-09T14:14:08;20.70;99.90
55173;DHT22;41061;52.822;6.860;2022-09-09T14:16:42;20.60;99.90
55173;DHT22;41061;52.822;6.860;2022-09-09T14:19:08;20.40;99.90
55173;DHT22;41061;52.822;6.860;2022-09-09T14:21:34;20.20;99.90
55173;DHT22;41061;52.822;6.860;2022-09-09T14:24:00;19.90;99.90
55173;DHT22;41061;52.822;6.860;2022-09-09T14:26:26;19.60;99.90
55173;DHT22;41061;52.822;6.860;2022-09-09T14:28:54;19.40;99.90
55173;DHT22;41061;52.822;6.860;2022-09-09T14:31:19;19.30;99.90
55173;DHT22;41061;52.822;6.860;2022-09-09T14:33:46;19.10;99.90
55173;DHT22;41061;52.822;6.860;2022-09-09T14:36:12;19.00;99.90
55173;DHT22;41061;52.822;6.860;2022-09-09T14:38:39;18.90;99.90
55173;DHT22;41061;52.822;6.860;2022-09-09T14:41:16;19.00;99.90
55173;DHT22;41061;52.822;6.860;2022-09-09T14:43:42;19.00;99.90
55173;DHT22;41061;52.822;6.860;2022-09-09T14:51:10;19.20;99.90
55173;DHT22;41061;52.822;6.860;2022-09-09T14:53:36;19.20;99.90
55173;DHT22;41061;52.822;6.860;2022-09-09T14:56:07;19.20;99.90
55173;DHT22;41061;52.822;6.860;2022-09-09T14:58:34;19.40;99.90
55173;DHT22;41061;52.822;6.860;2022-09-09T15:01:18;19.60;99.90
55173;DHT22;41061;52.822;6.860;2022-09-09T15:04:05;19.50;99.90
55173;DHT22;41061;52.822;6.860;2022-09-09T15:06:34;19.60;99.90
55173;DHT22;41061;52.822;6.860;2022-09-09T15:09:25;19.70;99.90
55173;DHT22;41061;52.822;6.860;2022-09-09T15:12:00;19.60;99.90
55173;DHT22;41061;52.822;6.860;2022-09-09T15:15:05;19.60;99.90
55173;DHT22;41061;52.822;6.860;2022-09-09T15:17:42;19.60;99.90
55173;DHT22;41061;52.822;6.860;2022-09-09T15:20:16;19.40;99.90
55173;DHT22;41061;52.822;6.860;2022-09-09T15:23:19;19.40;99.90
55173;DHT22;41061;52.822;6.860;2022-09-09T15:29:18;19.40;99.90
55173;DHT22;41061;52.822;6.860;2022-09-09T15:32:22;19.20;99.90
55173;DHT22;41061;52.822;6.860;2022-09-09T15:35:52;19.10;99.90
55173;DHT22;41061;52.822;6.860;2022-09-09T15:39:04;19.00;99.90
55173;DHT22;41061;52.822;6.860;2022-09-09T15:41:50;19.00;99.90
55173;DHT22;41061;52.822;6.860;2022-09-09T15:44:49;19.00;99.90
55173;DHT22;41061;52.822;6.860;2022-09-09T15:47:20;19.00;99.90
55173;DHT22;41061;52.822;6.860;2022-09-09T15:50:36;18.90;99.90
55173;DHT22;41061;52.822;6.860;2022-09-09T15:53:22;18.80;99.90
55173;DHT22;41061;52.822;6.860;2022-09-09T15:55:54;18.80;99.90
55173;DHT22;41061;52.822;6.860;2022-09-09T15:58:33;18.80;99.90
55173;DHT22;41061;52.822;6.860;2022-09-09T16:01:06;18.70;99.90
55173;DHT22;41061;52.822;6.860;2022-09-09T16:03:42;18.70;99.90
55173;DHT22;41061;52.822;6.860;2022-09-09T16:06:14;18.70;99.90
55173;DHT22;41061;52.822;6.860;2022-09-09T16:08:44;18.70;99.90
55173;DHT22;41061;52.822;6.860;2022-09-09T16:11:11;18.60;99.90
55173;DHT22;41061;52.822;6.860;2022-09-09T16:13:49;18.60;99.90
55173;DHT22;41061;52.822;6.860;2022-09-09T16:16:17;18.50;99.90
55173;DHT22;41061;52.822;6.860;2022-09-09T16:18:54;18.50;99.90
55173;DHT22;41061;52.822;6.860;2022-09-09T16:21:28;18.60;99.90
55173;DHT22;41061;52.822;6.860;2022-09-09T16:23:55;18.60;99.90
55173;DHT22;41061;52.822;6.860;2022-09-09T16:26:24;18.60;99.90
55173;DHT22;41061;52.822;6.860;2022-09-09T16:28:50;18.70;99.90
55173;DHT22;41061;52.822;6.860;2022-09-09T16:31:21;18.70;99.90
55173;DHT22;41061;52.822;6.860;2022-09-09T16:33:47;18.60;99.90
55173;DHT22;41061;52.822;6.860;2022-09-09T16:36:16;18.60;99.90
55173;DHT22;41061;52.822;6.860;2022-09-09T16:38:43;18.60;99.90
55173;DHT22;41061;52.822;6.860;2022-09-09T16:41:10;18.50;99.90
55173;DHT22;41061;52.822;6.860;2022-09-09T16:43:37;18.50;99.90
55173;DHT22;41061;52.822;6.860;2022-09-09T16:46:17;18.50;99.90
55173;DHT22;41061;52.822;6.860;2022-09-09T16:48:44;18.40;99.90
55173;DHT22;41061;52.822;6.860;2022-09-09T16:51:25;18.50;99.90
55173;DHT22;41061;52.822;6.860;2022-09-09T16:53:52;18.40;99.90
55173;DHT22;41061;52.822;6.860;2022-09-09T16:56:24;18.40;99.90
55173;DHT22;41061;52.822;6.860;2022-09-09T16:59:01;18.40;99.90
55173;DHT22;41061;52.822;6.860;2022-09-09T17:01:30;18.40;99.90
55173;DHT22;41061;52.822;6.860;2022-09-09T17:03:59;18.50;99.90
55173;DHT22;41061;52.822;6.860;2022-09-09T17:06:26;18.30;99.90
55173;DHT22;41061;52.822;6.860;2022-09-09T17:08:56;18.40;99.90
55173;DHT22;41061;52.822;6.860;2022-09-09T17:11:23;18.30;99.90
55173;DHT22;41061;52.822;6.860;2022-09-09T17:13:49;18.30;99.90
55173;DHT22;41061;52.822;6.860;2022-09-09T17:16:17;18.30;99.90
55173;DHT22;41061;52.822;6.860;2022-09-09T17:18:43;18.20;99.90
55173;DHT22;41061;52.822;6.860;2022-09-09T17:21:13;18.20;99.90
55173;DHT22;41061;52.822;6.860;2022-09-09T17:23:40;18.10;99.90
55173;DHT22;41061;52.822;6.860;2022-09-09T17:26:09;18.10;99.90
55173;DHT22;41061;52.822;6.860;2022-09-09T17:28:36;18.10;99.90
55173;DHT22;41061;52.822;6.860;2022-09-09T17:31:04;18.00;99.90
55173;DHT22;41061;52.822;6.860;2022-09-09T17:33:33;18.00;99.90
55173;DHT22;41061;52.822;6.860;2022-09-09T17:36:06;18.00;99.90
55173;DHT22;41061;52.822;6.860;2022-09-09T17:38:32;18.00;99.90
55173;DHT22;41061;52.822;6.860;2022-09-09T17:41:10;17.90;99.90
55173;DHT22;41061;52.822;6.860;2022-09-09T17:43:37;17.90;99.90
55173;DHT22;41061;52.822;6.860;2022-09-09T17:46:26;17.90;99.90
55173;DHT22;41061;52.822;6.860;2022-09-09T17:48:56;17.90;99.90
55173;DHT22;41061;52.822;6.860;2022-09-09T17:51:24;17.80;99.90
55173;DHT22;41061;52.822;6.860;2022-09-09T17:53:53;17.90;99.90
55173;DHT22;41061;52.822;6.860;2022-09-09T17:56:24;17.90;99.90
55173;DHT22;41061;52.822;6.860;2022-09-09T17:58:51;17.80;99.90
55173;DHT22;41061;52.822;6.860;2022-09-09T18:01:20;17.90;99.90
55173;DHT22;41061;52.822;6.860;2022-09-09T18:03:47;17.90;99.90
55173;DHT22;41061;52.822;6.860;2022-09-09T18:06:21;17.90;99.90
55173;DHT22;41061;52.822;6.860;2022-09-09T18:08:58;17.90;99.90
55173;DHT22;41061;52.822;6.860;2022-09-09T18:11:27;17.90;99.90
55173;DHT22;41061;52.822;6.860;2022-09-09T18:13:55;18.00;99.90
55173;DHT22;41061;52.822;6.860;2022-09-09T18:16:23;18.00;99.90
55173;DHT22;41061;52.822;6.860;2022-09-09T18:18:49;18.00;99.90
55173;DHT22;41061;52.822;6.860;2022-09-09T18:21:16;17.90;99.90
55173;DHT22;41061;52.822;6.860;2022-09-09T18:23:43;17.90;99.90
55173;DHT22;41061;52.822;6.860;2022-09-09T18:26:16;17.90;99.90
55173;DHT22;41061;52.822;6.860;2022-09-09T18:28:43;17.90;99.90
55173;DHT22;41061;52.822;6.860;2022-09-09T18:31:14;17.90;99.90
55173;DHT22;41061;52.822;6.860;2022-09-09T18:33:42;17.90;99.90
55173;DHT22;41061;52.822;6.860;2022-09-09T18:36:23;17.80;99.90
55173;DHT22;41061;52.822;6.860;2022-09-09T18:38:50;17.90;99.90
55173;DHT22;41061;52.822;6.860;2022-09-09T18:41:20;17.80;99.90
55173;DHT22;41061;52.822;6.860;2022-09-09T18:43:48;17.80;99.90
55173;DHT22;41061;52.822;6.860;2022-09-09T18:46:15;17.80;99.90
55173;DHT22;41061;52.822;6.860;2022-09-09T18:48:41;17.80;99.90
55173;DHT22;41061;52.822;6.860;2022-09-09T18:51:10;17.80;99.90
55173;DHT22;41061;52.822;6.860;2022-09-09T18:53:36;17.80;99.90
55173;DHT22;41061;52.822;6.860;2022-09-09T18:56:05;17.80;99.90
55173;DHT22;41061;52.822;6.860;2022-09-09T18:58:32;17.80;99.90
55173;DHT22;41061;52.822;6.860;2022-09-09T19:00:59;17.70;99.90
55173;DHT22;41061;52.822;6.860;2022-09-09T19:03:26;17.70;99.90
55173;DHT22;41061;52.822;6.860;2022-09-09T19:05:52;17.70;99.90
55173;DHT22;41061;52.822;6.860;2022-09-09T19:08:19;17.70;99.90
55173;DHT22;41061;52.822;6.860;2022-09-09T19:10:46;17.60;99.90
55173;DHT22;41061;52.822;6.860;2022-09-09T19:13:12;17.70;99.90
55173;DHT22;41061;52.822;6.860;2022-09-09T19:15:38;17.70;99.90
55173;DHT22;41061;52.822;6.860;2022-09-09T19:18:05;17.60;99.90
55173;DHT22;41061;52.822;6.860;2022-09-09T19:20:31;17.60;99.90
55173;DHT22;41061;52.822;6.860;2022-09-09T19:22:56;17.60;99.90
55173;DHT22;41061;52.822;6.860;2022-09-09T19:25:22;17.60;99.90
55173;DHT22;41061;52.822;6.860;2022-09-09T19:27:48;17.50;99.90
55173;DHT22;41061;52.822;6.860;2022-09-09T19:30:14;17.60;99.90
55173;DHT22;41061;52.822;6.860;2022-09-09T19:32:40;17.50;99.90